Time;durP1;ratioP1;P1;durP2;ratioP2;P2;SDS_P1;SDS_P2;PMS_P1;PMS_P2;Temp;Humidity;BMP_temperature;BMP_pressure;BME280_temperature;BME280_humidity;BME280_pressure;Samples;Min_cycle;Max_cycle;Signal;HPM_P1;HPM_P2
2022/08/10 00:00:55;;;;;;;3.93;3.50;;;18.20;99.90;;;;;;4937336;29;20445;-80
2022/08/10 00:03:22;;;;;;;3.20;3.00;;;18.20;99.90;;;;;;4939770;29;20652;-80
2022/08/10 00:05:49;;;;;;;5.37;3.70;;;18.20;99.90;;;;;;4937913;29;20454;-81
2022/08/10 00:08:19;;;;;;;3.97;3.50;;;18.30;99.90;;;;;;4942467;29;20489;-80
2022/08/10 00:10:54;;;;;;;6.30;4.13;;;18.20;99.90;;;;;;4934238;29;20434;-80
2022/08/10 00:13:23;;;;;;;3.57;3.30;;;18.10;99.90;;;;;;4942944;29;20809;-81
2022/08/10 00:15:53;;;;;;;3.83;3.43;;;18.10;99.90;;;;;;4943119;29;20468;-81
2022/08/10 00:18:25;;;;;;;4.30;3.90;;;18.10;99.90;;;;;;4920553;29;20506;-81
2022/08/10 00:21:03;;;;;;;5.40;3.73;;;18.10;99.90;;;;;;4935624;29;20776;-80
2022/08/10 00:23:31;;;;;;;3.77;3.37;;;18.20;99.90;;;;;;4941330;29;20462;-81
2022/08/10 00:25:58;;;;;;;4.03;3.73;;;18.20;99.90;;;;;;4942292;29;20445;-81
2022/08/10 00:28:25;;;;;;;5.23;3.47;;;18.10;99.90;;;;;;4940954;29;21051;-80
2022/08/10 00:30:52;;;;;;;3.87;3.40;;;18.20;99.90;;;;;;4941804;29;20419;-82
2022/08/10 00:33:19;;;;;;;5.27;3.83;;;18.30;99.90;;;;;;4940724;29;20438;-82
2022/08/10 00:35:47;;;;;;;4.70;3.80;;;18.20;99.90;;;;;;4941653;29;20461;-81
2022/08/10 00:38:15;;;;;;;4.33;3.93;;;18.20;99.90;;;;;;4942368;29;20462;-81
2022/08/10 00:40:42;;;;;;;4.10;3.80;;;18.40;99.90;;;;;;4939709;29;20467;-82
2022/08/10 00:43:09;;;;;;;3.73;3.40;;;18.00;99.90;;;;;;4941175;29;20450;-81
2022/08/10 00:45:36;;;;;;;4.97;3.53;;;18.20;99.90;;;;;;4941194;29;20500;-81
2022/08/10 00:48:03;;;;;;;6.00;3.60;;;18.30;99.90;;;;;;4939888;29;20548;-81
2022/08/10 00:50:31;;;;;;;4.07;3.73;;;18.20;99.90;;;;;;4939512;29;20438;-81
2022/08/10 00:52:58;;;;;;;3.67;3.37;;;18.20;99.90;;;;;;4939950;29;20462;-81
2022/08/10 00:55:25;;;;;;;3.90;3.60;;;18.10;99.90;;;;;;4939859;29;20451;-82
2022/08/10 00:57:54;;;;;;;3.90;3.60;;;18.00;99.90;;;;;;4940331;29;20461;-80
2022/08/10 01:00:22;;;;;;;6.00;4.30;;;17.90;99.90;;;;;;4939452;29;20458;-79
2022/08/10 01:02:50;;;;;;;5.23;3.73;;;17.40;99.90;;;;;;4919036;29;20446;-82
2022/08/10 01:05:19;;;;;;;4.20;3.60;;;17.50;99.90;;;;;;4940509;29;20460;-82
2022/08/10 01:07:55;;;;;;;4.00;3.70;;;17.40;99.90;;;;;;4940291;29;20990;-80
2022/08/10 01:10:45;;;;;;;4.30;3.90;;;17.40;99.90;;;;;;4941088;29;20473;-81
2022/08/10 01:13:20;;;;;;;6.40;3.97;;;17.60;99.90;;;;;;4943398;29;20445;-81
2022/08/10 01:16:03;;;;;;;6.63;4.13;;;17.80;99.90;;;;;;4925855;29;20448;-80
2022/08/10 01:18:52;;;;;;;6.17;4.03;;;17.90;99.90;;;;;;4943145;29;21037;-80
2022/08/10 01:21:46;;;;;;;4.57;4.07;;;17.90;99.90;;;;;;5175029;23;20474;-80
2022/08/10 01:24:59;;;;;;;3.73;3.50;;;17.90;99.90;;;;;;4981862;28;20471;-80
2022/08/10 01:27:38;;;;;;;6.73;4.13;;;17.90;99.90;;;;;;4994783;28;20473;-81
2022/08/10 01:30:12;;;;;;;4.23;3.83;;;17.80;99.90;;;;;;4981189;28;20407;-81
2022/08/10 01:32:50;;;;;;;4.83;4.13;;;17.70;99.90;;;;;;4989782;28;20443;-81
2022/08/10 01:35:30;;;;;;;5.77;4.70;;;17.60;99.90;;;;;;4980994;28;20809;-81
2022/08/10 01:38:12;;;;;;;3.97;3.23;;;17.60;99.90;;;;;;4973167;28;20437;-81
2022/08/10 01:40:43;;;;;;;6.30;4.30;;;17.50;99.90;;;;;;4979865;28;20751;-80
2022/08/10 01:43:13;;;;;;;5.87;4.50;;;17.50;99.90;;;;;;4978843;28;20444;-78
2022/08/10 01:45:49;;;;;;;4.50;4.13;;;17.10;99.90;;;;;;4977311;28;20463;-81
2022/08/10 01:48:29;;;;;;;4.50;4.00;;;17.10;99.90;;;;;;4968331;28;20857;-80
2022/08/10 01:51:15;;;;;;;4.97;4.40;;;17.30;99.90;;;;;;4978851;28;20439;-80
2022/08/10 01:53:52;;;;;;;6.97;4.60;;;17.30;99.90;;;;;;4986747;28;20779;-80
2022/08/10 01:56:21;;;;;;;5.53;4.50;;;17.40;99.90;;;;;;4983397;28;20436;-79
2022/08/10 01:58:54;;;;;;;4.40;4.00;;;17.40;99.90;;;;;;4975793;28;20596;-81
2022/08/10 02:01:25;;;;;;;5.00;4.17;;;17.40;99.90;;;;;;4992322;28;20603;-81
2022/08/10 02:03:56;;;;;;;5.00;3.60;;;17.30;99.90;;;;;;4972114;28;20495;-81
2022/08/10 02:06:33;;;;;;;5.80;4.87;;;17.30;99.90;;;;;;4986220;28;20441;-81
2022/08/10 02:09:02;;;;;;;4.77;4.33;;;17.20;99.90;;;;;;4995874;28;20612;-81
2022/08/10 02:11:36;;;;;;;4.80;4.40;;;17.20;99.90;;;;;;4981015;28;20506;-81
2022/08/10 02:14:28;;;;;;;6.97;5.37;;;17.10;99.90;;;;;;4977979;28;20403;-81
2022/08/10 02:17:05;;;;;;;5.23;4.70;;;17.10;99.90;;;;;;4973947;28;20440;-80
2022/08/10 02:19:35;;;;;;;5.60;4.93;;;16.90;99.90;;;;;;4979172;28;20717;-81
2022/08/10 02:22:05;;;;;;;5.20;4.77;;;16.70;99.90;;;;;;4991690;28;20722;-81
2022/08/10 02:24:54;;;;;;;5.40;5.00;;;16.80;99.90;;;;;;4984904;28;20424;-82
2022/08/10 02:27:23;;;;;;;7.60;6.90;;;17.00;99.90;;;;;;4980211;28;20742;-80
2022/08/10 02:29:51;;;;;;;5.27;4.87;;;17.00;99.90;;;;;;4974849;28;20500;-80
2022/08/10 02:32:21;;;;;;;5.00;4.60;;;17.00;99.90;;;;;;4975331;28;20447;-81
2022/08/10 02:35:04;;;;;;;4.90;4.60;;;17.00;99.90;;;;;;4975351;28;20441;-81
2022/08/10 02:37:36;;;;;;;5.93;5.33;;;17.00;99.90;;;;;;4977495;28;20499;-80
2022/08/10 02:40:04;;;;;;;6.30;5.50;;;17.00;99.90;;;;;;4987704;28;20434;-80
2022/08/10 02:42:44;;;;;;;5.27;4.77;;;17.00;99.90;;;;;;4972777;28;20533;-83
2022/08/10 02:45:42;;;;;;;6.83;5.90;;;16.90;99.90;;;;;;4977944;28;20729;-79
2022/08/10 02:48:20;;;;;;;6.30;5.70;;;16.80;99.90;;;;;;4971585;28;20499;-79
2022/08/10 02:50:57;;;;;;;13.20;5.07;;;16.70;99.90;;;;;;4978785;28;20436;-80
2022/08/10 02:53:34;;;;;;;8.37;6.10;;;16.70;99.90;;;;;;4971612;28;20446;-81
2022/08/10 02:56:34;;;;;;;8.63;4.77;;;16.60;99.90;;;;;;4976373;28;20430;-80
2022/08/10 02:59:08;;;;;;;8.20;6.00;;;16.70;99.90;;;;;;4971421;28;20411;-81
2022/08/10 03:01:41;;;;;;;6.10;5.60;;;16.60;99.90;;;;;;4978722;28;20408;-80
2022/08/10 03:04:17;;;;;;;11.60;5.77;;;16.60;99.90;;;;;;4976390;28;20781;-81
2022/08/10 03:06:56;;;;;;;5.57;5.07;;;16.60;99.90;;;;;;4980344;28;20433;-80
2022/08/10 03:09:26;;;;;;;5.40;4.90;;;16.50;99.90;;;;;;4983731;28;20413;-80
2022/08/10 03:11:55;;;;;;;8.90;6.27;;;16.50;99.90;;;;;;4980680;28;20412;-79
2022/08/10 03:14:43;;;;;;;6.20;5.60;;;16.40;99.90;;;;;;4982688;28;20483;-80
2022/08/10 03:17:11;;;;;;;6.20;5.13;;;16.30;99.90;;;;;;4984112;28;20420;-79
2022/08/10 03:19:40;;;;;;;8.27;6.17;;;16.30;99.90;;;;;;4992762;28;20838;-80
2022/08/10 03:22:28;;;;;;;6.60;6.10;;;16.30;99.90;;;;;;4996955;28;20757;-81
2022/08/10 03:24:56;;;;;;;6.70;6.00;;;16.20;99.90;;;;;;4982977;28;20435;-81
2022/08/10 03:27:23;;;;;;;9.47;8.43;;;16.30;99.90;;;;;;4983367;28;20458;-80
2022/08/10 03:29:51;;;;;;;6.63;5.90;;;16.40;99.90;;;;;;4983892;28;20633;-79
2022/08/10 03:32:39;;;;;;;6.43;5.83;;;16.50;99.90;;;;;;4985681;28;20486;-80
2022/08/10 03:35:08;;;;;;;7.72;7.03;;;16.40;99.90;;;;;;4979055;28;20456;-80
2022/08/10 03:37:35;;;;;;;12.97;6.10;;;16.40;99.90;;;;;;4977601;28;20283;-80
2022/08/10 03:40:04;;;;;;;5.73;5.20;;;16.40;99.90;;;;;;4988093;28;20446;-80
2022/08/10 03:42:34;;;;;;;6.40;5.77;;;16.40;99.90;;;;;;4976574;28;20453;-81
2022/08/10 03:45:04;;;;;;;5.20;4.70;;;16.10;99.90;;;;;;4973814;28;20502;-80
2022/08/10 03:47:35;;;;;;;6.40;5.80;;;16.10;99.90;;;;;;4976955;28;20501;-79
2022/08/10 03:50:03;;;;;;;7.53;5.77;;;16.20;99.90;;;;;;4977322;28;20414;-80
2022/08/10 03:52:51;;;;;;;5.77;5.27;;;16.40;99.90;;;;;;4974259;28;20456;-80
2022/08/10 03:55:18;;;;;;;9.60;7.23;;;16.50;99.90;;;;;;4982316;28;20831;-81
2022/08/10 03:58:06;;;;;;;8.03;6.33;;;16.20;99.90;;;;;;4977063;28;20417;-79
2022/08/10 04:00:35;;;;;;;7.57;6.67;;;16.30;99.90;;;;;;4973265;28;20419;-79
2022/08/10 04:03:04;;;;;;;6.67;5.93;;;16.00;99.90;;;;;;4971165;28;20440;-79
2022/08/10 04:05:34;;;;;;;6.90;6.20;;;16.20;99.90;;;;;;4972846;28;20458;-80
2022/08/10 04:08:05;;;;;;;6.23;5.33;;;16.40;99.90;;;;;;4982816;28;20486;-80
2022/08/10 04:10:33;;;;;;;8.40;5.80;;;16.70;99.90;;;;;;4980321;28;20447;-81
2022/08/10 04:13:00;;;;;;;10.80;6.90;;;16.50;99.90;;;;;;4977151;28;20456;-81
2022/08/10 04:15:27;;;;;;;8.50;7.33;;;16.40;99.90;;;;;;4975406;28;20436;-79
2022/08/10 04:17:54;;;;;;;5.53;5.03;;;16.60;99.90;;;;;;4984560;28;20969;-80
2022/08/10 04:20:37;;;;;;;7.73;6.67;;;16.60;99.90;;;;;;4983663;28;20423;-80
2022/08/10 04:23:12;;;;;;;8.23;5.97;;;16.60;99.90;;;;;;4980563;28;20432;-80
2022/08/10 04:25:40;;;;;;;9.13;5.93;;;16.90;99.90;;;;;;4974779;28;20568;-81
2022/08/10 04:28:08;;;;;;;6.60;5.90;;;17.20;99.90;;;;;;4988270;28;20804;-81
2022/08/10 04:30:36;;;;;;;5.53;5.10;;;17.30;99.90;;;;;;4989084;28;20446;-81
2022/08/10 04:33:06;;;;;;;5.57;5.07;;;17.50;99.90;;;;;;4979377;28;20487;-81
2022/08/10 04:35:37;;;;;;;5.67;5.10;;;17.80;99.90;;;;;;4984873;28;20465;-80
2022/08/10 04:38:05;;;;;;;7.10;4.63;;;17.70;99.90;;;;;;4986533;28;20458;-80
2022/08/10 04:40:33;;;;;;;5.20;4.80;;;17.70;99.90;;;;;;4989310;28;20458;-79
2022/08/10 04:43:03;;;;;;;5.60;4.20;;;17.50;99.90;;;;;;4981623;28;20481;-78
2022/08/10 04:45:41;;;;;;;7.57;5.40;;;17.60;99.90;;;;;;4977044;28;20407;-80
2022/08/10 04:48:23;;;;;;;4.93;3.40;;;17.80;99.90;;;;;;4985000;28;20537;-80
2022/08/10 04:51:17;;;;;;;5.90;4.17;;;17.80;99.90;;;;;;4978110;28;20426;-79
2022/08/10 04:53:48;;;;;;;6.10;5.00;;;17.90;99.90;;;;;;4981888;28;20475;-80
2022/08/10 04:56:34;;;;;;;6.67;4.30;;;18.00;99.90;;;;;;4992656;28;20436;-80
2022/08/10 04:59:01;;;;;;;4.60;4.17;;;18.10;99.90;;;;;;4994938;28;20483;-81
2022/08/10 05:01:28;;;;;;;4.63;4.20;;;18.10;99.90;;;;;;4987100;28;20507;-80
2022/08/10 05:04:16;;;;;;;5.37;4.87;;;18.20;99.90;;;;;;4993241;28;20413;-80
2022/08/10 05:07:12;;;;;;;4.23;3.93;;;18.40;99.90;;;;;;4976774;28;20402;-80
2022/08/10 05:09:47;;;;;;;7.70;4.23;;;18.50;99.90;;;;;;4976098;28;20574;-79
2022/08/10 05:12:31;;;;;;;4.27;3.93;;;18.50;99.90;;;;;;4982302;28;20821;-80
2022/08/10 05:15:13;;;;;;;4.80;4.30;;;18.60;99.90;;;;;;4984619;28;20547;-79
2022/08/10 05:17:41;;;;;;;4.47;3.53;;;18.70;99.90;;;;;;4975969;28;20802;-80
2022/08/10 05:20:29;;;;;;;4.67;4.27;;;18.60;99.90;;;;;;4976090;28;20415;-80
2022/08/10 05:22:56;;;;;;;4.60;4.20;;;18.60;99.90;;;;;;4982158;28;20416;-80
2022/08/10 05:25:23;;;;;;;4.07;3.77;;;18.90;99.90;;;;;;4971707;28;20458;-79
2022/08/10 05:27:50;;;;;;;5.37;4.57;;;18.90;99.90;;;;;;4971920;28;20460;-81
2022/08/10 05:30:20;;;;;;;5.27;4.77;;;18.90;99.90;;;;;;4975079;28;20509;-78
2022/08/10 05:32:48;;;;;;;5.17;4.67;;;19.20;99.90;;;;;;4975345;28;20519;-80
2022/08/10 05:35:26;;;;;;;8.00;5.53;;;19.10;99.90;;;;;;4971279;28;20487;-79
2022/08/10 05:37:55;;;;;;;5.70;5.30;;;19.20;99.90;;;;;;4990774;28;20646;-78
2022/08/10 05:40:42;;;;;;;7.10;5.60;;;19.40;99.90;;;;;;4973967;28;20448;-79
2022/08/10 05:43:17;;;;;;;5.60;5.10;;;19.20;99.90;;;;;;4978987;28;20452;-79
2022/08/10 05:45:46;;;;;;;6.30;5.70;;;19.00;99.90;;;;;;4982222;28;20432;-78
2022/08/10 05:48:34;;;;;;;6.13;5.40;;;19.10;99.90;;;;;;4989103;28;20484;-78
2022/08/10 05:51:22;;;;;;;5.23;4.83;;;19.30;99.90;;;;;;4980997;28;20538;-78
2022/08/10 05:53:49;;;;;;;5.87;5.10;;;19.20;99.90;;;;;;4979637;28;20657;-79
2022/08/10 05:56:32;;;;;;;7.20;5.60;;;19.20;99.90;;;;;;4978999;28;20511;-79
2022/08/10 05:59:19;;;;;;;9.30;7.77;;;19.60;99.90;;;;;;4980936;28;20472;-79
2022/08/10 06:02:07;;;;;;;7.40;6.20;;;19.40;99.90;;;;;;4981313;28;20421;-79
2022/08/10 06:04:55;;;;;;;6.47;5.87;;;19.40;99.90;;;;;;4981090;28;20602;-79
2022/08/10 06:07:26;;;;;;;8.10;7.40;;;19.60;99.90;;;;;;4987989;28;20452;-78
2022/08/10 06:09:55;;;;;;;12.60;7.47;;;19.80;99.90;;;;;;4992101;28;20602;-80
2022/08/10 06:12:27;;;;;;;8.00;7.30;;;19.90;99.90;;;;;;4978329;28;20454;-79
2022/08/10 06:15:01;;;;;;;7.20;6.63;;;20.00;99.90;;;;;;4979203;28;20426;-79
2022/08/10 06:17:37;;;;;;;9.07;7.80;;;20.20;99.90;;;;;;4984465;28;20779;-79
2022/08/10 06:20:06;;;;;;;6.90;5.90;;;20.40;99.90;;;;;;4975408;28;20483;-79
2022/08/10 06:22:34;;;;;;;4.90;4.47;;;20.60;99.90;;;;;;4974025;28;20525;-79
2022/08/10 06:25:01;;;;;;;7.47;5.13;;;20.50;99.90;;;;;;4989677;28;20461;-78
2022/08/10 06:27:50;;;;;;;5.70;5.00;;;20.40;99.90;;;;;;4990343;28;20476;-80
2022/08/10 06:30:18;;;;;;;5.47;4.97;;;20.60;99.90;;;;;;4981278;28;20455;-78
2022/08/10 06:32:48;;;;;;;6.30;5.60;;;20.80;99.90;;;;;;4988452;28;20525;-78
2022/08/10 06:35:16;;;;;;;7.13;4.90;;;20.80;99.90;;;;;;4979281;28;20458;-78
2022/08/10 06:37:44;;;;;;;5.43;4.93;;;20.90;99.90;;;;;;4986275;28;20457;-77
2022/08/10 06:40:18;;;;;;;5.10;4.60;;;21.10;99.90;;;;;;4972607;28;20453;-79
2022/08/10 06:42:49;;;;;;;5.47;4.97;;;21.20;99.90;;;;;;4985543;28;20447;-79
2022/08/10 06:45:21;;;;;;;5.50;4.73;;;21.50;99.90;;;;;;4988093;28;20454;-78
2022/08/10 06:48:02;;;;;;;5.23;4.73;;;21.90;99.90;;;;;;4979951;28;20507;-80
2022/08/10 06:50:38;;;;;;;5.33;4.83;;;23.10;99.90;;;;;;4976982;28;20771;-79
2022/08/10 06:53:33;;;;;;;5.83;4.97;;;24.50;99.90;;;;;;4969775;28;20448;-79
2022/08/10 06:56:22;;;;;;;9.70;7.83;;;25.30;99.90;;;;;;4986697;28;20413;-80
2022/08/10 06:59:24;;;;;;;4.33;3.90;;;25.80;99.90;;;;;;4971296;28;20448;-78
2022/08/10 07:02:00;;;;;;;4.60;4.20;;;26.00;99.90;;;;;;4985756;28;20494;-78
2022/08/10 07:04:34;;;;;;;6.30;4.50;;;26.20;99.90;;;;;;4989755;28;20449;-78
2022/08/10 07:07:04;;;;;;;5.80;5.30;;;26.60;99.90;;;;;;4978773;28;20420;-79
2022/08/10 07:09:36;;;;;;;4.80;4.30;;;27.80;99.90;;;;;;4986851;28;20479;-78
2022/08/10 07:12:06;;;;;;;14.37;9.87;;;29.40;99.90;;;;;;4990325;28;20495;-80
2022/08/10 07:14:41;;;;;;;5.30;4.77;;;30.60;99.90;;;;;;4979875;28;20445;-79
2022/08/10 07:17:12;;;;;;;7.40;4.70;;;31.30;99.40;;;;;;4984425;28;20455;-80
2022/08/10 07:19:45;;;;;;;5.80;3.87;;;31.80;96.90;;;;;;4988551;28;20449;-81
2022/08/10 07:22:18;;;;;;;3.50;3.20;;;31.30;96.20;;;;;;4986904;28;20472;-78
2022/08/10 07:25:06;;;;;;;4.73;3.30;;;31.00;96.60;;;;;;4985360;28;20493;-80
2022/08/10 07:27:34;;;;;;;6.30;4.37;;;31.30;94.90;;;;;;4994921;28;20449;-79
2022/08/10 07:30:22;;;;;;;4.03;3.73;;;32.50;93.30;;;;;;4980624;28;20464;-79
2022/08/10 07:32:51;;;;;;;2.80;2.60;;;34.40;90.70;;;;;;4979819;28;20450;-80
2022/08/10 07:35:21;;;;;;;3.97;3.67;;;34.50;86.70;;;;;;4986603;28;20441;-79
2022/08/10 07:37:50;;;;;;;3.23;2.93;;;35.10;83.80;;;;;;4973977;28;20600;-79
2022/08/10 07:40:20;;;;;;;3.50;3.20;;;35.90;77.30;;;;;;4989874;28;20797;-79
2022/08/10 07:42:52;;;;;;;3.00;2.80;;;36.80;73.60;;;;;;4990226;28;20436;-79
2022/08/10 07:45:19;;;;;;;8.23;3.50;;;36.20;70.70;;;;;;4981808;28;20527;-79
2022/08/10 07:48:03;;;;;;;6.00;3.37;;;36.10;69.50;;;;;;4975129;28;20810;-80
2022/08/10 07:50:36;;;;;;;3.77;3.50;;;34.60;72.60;;;;;;4980656;28;20436;-78
2022/08/10 07:53:07;;;;;;;11.60;3.63;;;33.70;74.00;;;;;;4984116;28;20440;-80
2022/08/10 07:55:36;;;;;;;3.73;2.93;;;34.50;73.70;;;;;;4980195;28;20448;-78
2022/08/10 07:58:27;;;;;;;3.10;2.77;;;36.30;69.00;;;;;;4972477;28;20990;-80
2022/08/10 08:00:56;;;;;;;3.00;2.77;;;34.90;70.60;;;;;;4984756;28;20495;-79
2022/08/10 08:03:27;;;;;;;2.90;2.70;;;34.50;70.70;;;;;;4983275;28;20444;-80
2022/08/10 08:05:56;;;;;;;3.43;3.20;;;33.70;72.80;;;;;;4986530;28;20902;-80
2022/08/10 08:08:32;;;;;;;3.10;2.90;;;35.90;69.10;;;;;;4988081;28;20475;-78
2022/08/10 08:11:00;;;;;;;3.60;3.30;;;35.20;70.40;;;;;;4980821;28;20516;-78
2022/08/10 08:13:29;;;;;;;6.03;3.10;;;35.30;69.40;;;;;;4977950;28;20539;-78
2022/08/10 08:15:59;;;;;;;2.70;2.50;;;34.90;69.00;;;;;;4986616;28;20448;-80
2022/08/10 08:18:49;;;;;;;3.30;3.10;;;34.90;68.20;;;;;;4982981;28;20451;-77
2022/08/10 08:21:38;;;;;;;6.13;4.63;;;33.10;73.70;;;;;;4979535;28;20542;-77
2022/08/10 08:24:26;;;;;;;3.73;2.67;;;33.10;73.90;;;;;;4974473;28;20514;-77
2022/08/10 08:27:01;;;;;;;2.43;2.33;;;33.50;72.30;;;;;;4984655;28;20477;-79
2022/08/10 08:29:32;;;;;;;4.70;2.93;;;33.50;72.50;;;;;;4982215;28;20468;-79
2022/08/10 08:32:01;;;;;;;2.67;2.47;;;33.40;73.20;;;;;;4983569;28;20456;-79
2022/08/10 08:34:38;;;;;;;6.13;5.63;;;34.60;71.70;;;;;;4980903;28;20449;-79
2022/08/10 08:37:09;;;;;;;3.93;2.50;;;34.90;69.60;;;;;;4984289;28;20429;-79
2022/08/10 08:39:36;;;;;;;3.30;2.97;;;34.30;67.40;;;;;;4994584;28;20460;-80
2022/08/10 08:42:31;;;;;;;6.43;5.83;;;32.20;73.90;;;;;;4987426;28;20436;-80
2022/08/10 08:45:04;;;;;;;3.73;3.43;;;33.10;73.40;;;;;;4991357;28;20458;-78
2022/08/10 08:47:50;;;;;;;3.00;2.73;;;34.70;69.30;;;;;;4988866;28;20476;-79
2022/08/10 08:51:01;;;;;;;3.80;2.70;;;35.80;66.00;;;;;;4982363;28;20484;-78
2022/08/10 08:53:47;;;;;;;2.37;2.23;;;35.50;64.20;;;;;;4988918;28;20782;-77
2022/08/10 08:56:33;;;;;;;2.47;1.90;;;34.80;62.40;;;;;;4990136;28;20449;-79
2022/08/10 08:59:30;;;;;;;2.47;2.27;;;32.60;67.50;;;;;;4979657;28;20528;-80
2022/08/10 09:02:06;;;;;;;2.50;2.30;;;34.30;64.10;;;;;;4990412;28;20510;-79
2022/08/10 09:04:56;;;;;;;4.20;2.40;;;35.80;60.70;;;;;;4979060;28;20811;-78
2022/08/10 09:07:49;;;;;;;4.13;2.47;;;34.70;61.20;;;;;;4985653;28;20451;-78
2022/08/10 09:10:52;;;;;;;3.00;2.53;;;33.60;63.30;;;;;;4979668;28;20510;-78
2022/08/10 09:13:43;;;;;;;5.20;2.57;;;32.80;67.00;;;;;;4964575;28;20451;-79
2022/08/10 09:16:50;;;;;;;3.93;2.40;;;33.60;65.80;;;;;;4968174;28;20768;-79
2022/08/10 09:19:42;;;;;;;2.87;2.67;;;33.50;64.50;;;;;;4974064;28;20467;-78
2022/08/10 09:22:41;;;;;;;5.03;3.00;;;33.60;64.40;;;;;;4972785;28;20851;-78
2022/08/10 09:25:13;;;;;;;5.00;2.60;;;33.30;64.90;;;;;;4975506;28;20440;-79
2022/08/10 09:27:42;;;;;;;3.40;3.20;;;32.30;68.10;;;;;;4985954;28;20481;-79
2022/08/10 09:30:24;;;;;;;2.80;2.60;;;32.70;67.30;;;;;;4977379;28;20492;-79
2022/08/10 09:33:14;;;;;;;3.53;3.23;;;31.70;69.80;;;;;;4980470;28;20483;-80
2022/08/10 09:36:38;;;;;;;2.73;2.53;;;31.60;71.10;;;;;;4975795;28;20662;-78
2022/08/10 09:39:21;;;;;;;4.90;3.20;;;29.30;77.30;;;;;;4968560;28;20419;-79
2022/08/10 09:42:27;;;;;;;2.63;2.43;;;28.30;81.70;;;;;;4970900;28;20446;-79
2022/08/10 09:45:01;;;;;;;3.27;3.07;;;27.80;84.00;;;;;;4968043;28;21049;-80
2022/08/10 09:47:53;;;;;;;2.70;2.40;;;28.00;85.90;;;;;;4977189;28;20454;-80
2022/08/10 09:50:41;;;;;;;3.43;3.13;;;28.60;83.90;;;;;;4976650;28;20462;-78
2022/08/10 09:53:49;;;;;;;2.50;2.37;;;28.00;81.70;;;;;;4977030;28;20503;-80
2022/08/10 09:56:53;;;;;;;2.80;2.60;;;27.50;83.70;;;;;;4972735;28;20443;-79
2022/08/10 10:00:06;;;;;;;4.17;2.73;;;27.40;84.20;;;;;;4980475;28;20668;-79
2022/08/10 10:02:54;;;;;;;3.30;3.00;;;27.10;85.30;;;;;;4986139;28;20427;-78
2022/08/10 10:05:42;;;;;;;4.70;2.37;;;26.40;86.60;;;;;;4994589;28;20850;-77
2022/08/10 10:08:56;;;;;;;2.83;2.30;;;26.60;87.20;;;;;;5007519;28;20477;-80
2022/08/10 10:12:10;;;;;;;3.77;2.83;;;27.10;85.50;;;;;;4996152;28;20519;-79
2022/08/10 10:18:09;;;;;;;2.60;2.40;;;26.80;87.70;;;;;;4987906;28;20489;-79
2022/08/10 10:21:01;;;;;;;4.13;2.33;;;26.00;90.10;;;;;;4975848;28;20558;-79
2022/08/10 10:23:36;;;;;;;2.60;2.40;;;25.70;90.60;;;;;;4979603;28;20416;-78
2022/08/10 10:26:25;;;;;;;3.30;2.50;;;25.60;91.00;;;;;;4962093;28;20528;-77
2022/08/10 10:29:04;;;;;;;2.33;2.20;;;25.60;91.30;;;;;;4964813;28;20411;-78
2022/08/10 10:32:31;;;;;;;2.93;2.73;;;25.30;91.80;;;;;;4975115;28;20745;-81
2022/08/10 10:35:35;;;;;;;4.90;3.30;;;25.20;92.50;;;;;;4964395;28;20473;-78
2022/08/10 10:38:07;;;;;;;2.57;2.37;;;25.20;92.80;;;;;;4965985;28;20452;-79
2022/08/10 10:40:42;;;;;;;3.07;2.73;;;25.70;92.30;;;;;;4973733;28;20446;-77
2022/08/10 10:43:25;;;;;;;2.43;2.23;;;26.10;91.80;;;;;;4979145;28;20502;-76
2022/08/10 10:46:22;;;;;;;2.50;2.33;;;26.20;90.30;;;;;;4968342;28;20443;-79
2022/08/10 10:49:05;;;;;;;2.47;2.27;;;26.30;90.50;;;;;;4971832;28;20418;-78
2022/08/10 10:52:01;;;;;;;2.53;2.33;;;26.50;89.80;;;;;;4979699;28;20648;-78
2022/08/10 10:54:43;;;;;;;2.70;2.50;;;26.70;89.50;;;;;;4975634;28;20968;-78
2022/08/10 10:57:23;;;;;;;2.53;2.33;;;26.70;89.30;;;;;;4978996;28;20428;-81
2022/08/10 11:00:11;;;;;;;2.67;2.47;;;27.20;88.20;;;;;;4975300;28;20435;-80
2022/08/10 11:03:16;;;;;;;2.73;2.40;;;27.10;88.90;;;;;;4980986;28;20446;-79
2022/08/10 11:06:12;;;;;;;3.00;2.80;;;26.10;90.30;;;;;;4972746;28;20445;-76
2022/08/10 11:08:48;;;;;;;3.37;2.80;;;25.60;91.00;;;;;;4962739;28;20426;-76
2022/08/10 11:11:30;;;;;;;2.93;2.70;;;25.40;91.80;;;;;;4984800;28;20411;-78
2022/08/10 11:14:36;;;;;;;3.60;2.50;;;25.20;91.90;;;;;;4982408;28;20419;-77
2022/08/10 11:17:30;;;;;;;2.77;2.57;;;25.60;92.20;;;;;;4981601;28;20410;-80
2022/08/10 11:20:09;;;;;;;4.60;2.20;;;26.20;91.10;;;;;;4982610;28;20506;-79
2022/08/10 11:22:50;;;;;;;4.33;2.40;;;26.30;90.00;;;;;;4974069;28;20512;-79
2022/08/10 11:26:01;;;;;;;3.70;3.00;;;26.40;91.20;;;;;;4977633;28;20483;-79
2022/08/10 11:28:31;;;;;;;2.37;2.27;;;26.30;90.20;;;;;;4963204;28;20433;-79
2022/08/10 11:31:20;;;;;;;4.00;2.23;;;26.00;90.70;;;;;;5000818;28;20461;-78
2022/08/10 11:33:58;;;;;;;2.90;2.57;;;25.70;90.40;;;;;;4987770;28;20666;-81
2022/08/10 11:37:20;;;;;;;2.20;2.00;;;25.70;90.20;;;;;;4997583;28;20402;-78
2022/08/10 11:39:58;;;;;;;3.80;1.77;;;26.10;90.20;;;;;;4991313;28;20761;-79
2022/08/10 11:42:48;;;;;;;2.50;2.00;;;26.40;88.00;;;;;;4996438;28;20414;-80
2022/08/10 11:45:30;;;;;;;2.80;2.60;;;26.40;86.10;;;;;;4984153;28;20804;-78
2022/08/10 11:48:18;;;;;;;6.40;2.30;;;25.90;88.90;;;;;;4983768;28;20759;-80
2022/08/10 11:51:12;;;;;;;2.83;2.27;;;25.60;89.90;;;;;;4977512;28;20501;-79
2022/08/10 11:54:01;;;;;;;2.73;2.53;;;25.90;89.50;;;;;;4979981;28;20446;-78
2022/08/10 11:56:50;;;;;;;3.63;2.50;;;26.30;88.40;;;;;;4979211;28;20443;-78
2022/08/10 12:02:08;;;;;;;2.40;2.20;;;25.90;90.80;;;;;;4985530;28;20445;-79
2022/08/10 12:04:40;;;;;;;2.37;2.20;;;25.30;90.50;;;;;;4985580;28;20456;-79
2022/08/10 12:07:09;;;;;;;2.83;2.63;;;25.20;90.40;;;;;;4982863;28;20633;-80
2022/08/10 12:09:59;;;;;;;2.17;1.97;;;25.20;90.70;;;;;;4989059;28;20441;-80
2022/08/10 12:12:52;;;;;;;2.67;1.70;;;25.30;90.30;;;;;;4982967;28;20577;-79
2022/08/10 12:15:37;;;;;;;2.70;2.50;;;25.50;89.10;;;;;;4990946;28;20788;-78
2022/08/10 12:18:17;;;;;;;2.10;2.00;;;26.00;89.40;;;;;;4982245;28;20441;-78
2022/08/10 12:20:50;;;;;;;2.60;2.40;;;26.40;88.60;;;;;;4987577;28;20455;-80
2022/08/10 12:23:53;;;;;;;2.10;1.90;;;26.90;89.70;;;;;;4984937;28;20450;-80
2022/08/10 12:26:47;;;;;;;2.43;2.23;;;27.10;87.50;;;;;;4978023;28;20463;-79
2022/08/10 12:29:45;;;;;;;2.83;2.20;;;26.50;88.30;;;;;;4982736;28;20423;-79
2022/08/10 12:32:29;;;;;;;2.10;1.90;;;26.40;88.60;;;;;;4985353;28;20416;-80
2022/08/10 12:35:17;;;;;;;2.37;2.17;;;26.30;90.00;;;;;;4975793;28;20479;-78
2022/08/10 12:38:10;;;;;;;5.60;2.40;;;26.40;90.40;;;;;;4982241;28;20758;-79
2022/08/10 12:40:43;;;;;;;2.40;2.20;;;26.50;90.30;;;;;;4979017;28;20489;-79
2022/08/10 12:43:13;;;;;;;2.93;2.73;;;26.80;90.40;;;;;;4982435;28;20479;-79
2022/08/10 12:46:15;;;;;;;2.13;1.93;;;26.60;88.70;;;;;;4980452;28;20491;-79
2022/08/10 12:49:15;;;;;;;2.23;1.77;;;26.20;88.60;;;;;;4983647;28;20415;-78
2022/08/10 12:51:49;;;;;;;2.20;2.00;;;26.30;89.80;;;;;;4987505;28;20644;-77
2022/08/10 12:54:21;;;;;;;3.43;1.73;;;26.30;87.90;;;;;;4984432;28;21059;-79
2022/08/10 12:57:11;;;;;;;2.30;2.20;;;26.40;88.10;;;;;;4975899;28;20542;-79
2022/08/10 12:59:43;;;;;;;2.13;1.93;;;26.30;88.10;;;;;;4983285;28;20453;-81
2022/08/10 13:02:21;;;;;;;4.07;2.60;;;26.30;88.70;;;;;;4981966;28;20449;-76
2022/08/10 13:04:53;;;;;;;2.40;2.20;;;26.50;86.70;;;;;;4972873;28;20486;-79
2022/08/10 13:07:33;;;;;;;2.83;1.87;;;26.60;86.50;;;;;;4990612;28;20791;-81
2022/08/10 13:10:22;;;;;;;1.83;1.67;;;26.80;86.90;;;;;;4985786;28;20755;-78
2022/08/10 13:12:53;;;;;;;2.13;1.93;;;26.60;85.30;;;;;;4979866;28;20420;-78
2022/08/10 13:15:31;;;;;;;3.13;2.10;;;26.40;86.60;;;;;;4991706;28;20513;-79
2022/08/10 13:18:23;;;;;;;1.80;1.70;;;26.30;85.80;;;;;;4982986;28;20923;-78
2022/08/10 13:20:54;;;;;;;1.70;1.57;;;26.30;84.90;;;;;;4974255;28;20434;-78
2022/08/10 13:23:26;;;;;;;2.77;2.40;;;26.30;84.60;;;;;;4977311;28;20452;-80
2022/08/10 13:25:57;;;;;;;2.43;2.20;;;26.50;85.10;;;;;;4971566;28;20483;-81
2022/08/10 13:28:43;;;;;;;2.07;1.87;;;26.90;84.70;;;;;;4985641;28;20530;-82
2022/08/10 13:31:16;;;;;;;3.40;2.47;;;27.10;83.20;;;;;;4978449;28;20513;-79
2022/08/10 13:33:48;;;;;;;2.70;2.50;;;26.80;85.00;;;;;;4988474;28;20442;-79
2022/08/10 13:36:39;;;;;;;2.30;2.10;;;26.60;86.60;;;;;;4989466;28;20451;-79
2022/08/10 13:39:07;;;;;;;2.40;1.47;;;26.30;85.40;;;;;;4986703;28;20512;-79
2022/08/10 13:41:38;;;;;;;2.40;1.67;;;26.20;85.30;;;;;;4994612;28;20759;-78
2022/08/10 13:44:07;;;;;;;3.63;2.10;;;25.90;85.10;;;;;;4986629;28;20395;-78
2022/08/10 13:46:39;;;;;;;1.67;1.53;;;25.70;86.40;;;;;;4995230;28;20416;-79
2022/08/10 13:49:08;;;;;;;2.00;1.90;;;25.70;86.50;;;;;;4990070;28;20520;-80
2022/08/10 13:51:38;;;;;;;2.53;1.60;;;25.70;87.80;;;;;;4990141;28;20591;-79